This is the latest recevied weather packets stored in our database for station/object KE5VBO-1. If no packets are shown the sender has not sent any weather packets the latest 1 day(s).
| Time | Temp. | Humidity | Pressure | Rain* | Wind** | Luminosity | Snow |
|---|---|---|---|---|---|---|---|
| 1778037317 | 17.22° C | 1% | 1007.2 hPa | 0 mm | 0 m/s | - | - |
| 1778036452 | 17.78° C | 1% | 1006.9 hPa | 0 mm | 0.45 m/s, 359° | - | - |
| 1778035529 | 18.33° C | 1% | 1006.4 hPa | 0 mm | 0.45 m/s, 258° | - | - |
| 1778034671 | 18.89° C | 1% | 1005.8 hPa | 0 mm | 0 m/s | - | - |
| 1778033719 | 19.44° C | 1% | 1005.5 hPa | 0 mm | 0.45 m/s, 258° | - | - |
| 1778032860 | 20° C | 1% | 1005.5 hPa | 0 mm | 0 m/s | - | - |
| 1778031923 | 20° C | 1% | 1004.7 hPa | 0 mm | 0 m/s | - | - |
| 1778031065 | 20.56° C | 1% | 1004.8 hPa | 0 mm | 0 m/s | - | - |
| 1778030128 | 21.11° C | 1% | 1004.3 hPa | 0 mm | 0 m/s | - | - |
| 1778029266 | 21.67° C | 1% | 1003.5 hPa | 0 mm | 0 m/s | - | - |
| 1778028335 | 22.22° C | 1% | 1003.8 hPa | 0 mm | 0 m/s | - | - |
| 1778027403 | 22.22° C | 1% | 1003.8 hPa | 0 mm | 0 m/s | - | - |
| 1778026547 | 22.78° C | 4% | 1003.5 hPa | 0 mm | 0 m/s | - | - |
| 1778025607 | 22.78° C | 15% | 1003.3 hPa | 0 mm | 0.45 m/s, 258° | - | - |
| 1778024747 | 23.89° C | 18% | 1003.1 hPa | 0 mm | 0.45 m/s, 258° | - | - |
| 1778023821 | 25° C | 30% | 1002.7 hPa | 0 mm | 0.45 m/s, 258° | - | - |
| 1778022932 | 25.56° C | 39% | 1002.7 hPa | 0 mm | 0.45 m/s, 211° | - | - |
| 1778022083 | 26.67° C | 42% | 1002.4 hPa | 0 mm | 0.45 m/s, 201° | - | - |
| 1778021130 | 27.78° C | 49% | 1002.2 hPa | 0 mm | 0 m/s | - | - |
| 1778020216 | 27.78° C | 53% | 1001.9 hPa | 0 mm | 0 m/s | - | - |
| 1778019355 | 28.33° C | 53% | 1001.5 hPa | 0 mm | 0 m/s | - | - |
| 1778018423 | 28.89° C | 53% | 1001.5 hPa | 0 mm | 0 m/s | - | - |
| 1778017552 | 30.56° C | 49% | 1001.6 hPa | 0 mm | 0 m/s | - | - |
| 1778016616 | 30.56° C | 52% | 1001.6 hPa | 0 mm | 0.45 m/s, 228° | - | - |
| 1778015763 | 31.11° C | 48% | 1001.7 hPa | 0 mm | 0 m/s | - | - |
* Rain latest hour (hover to see other rain measurements)
** Current wind speed in m/s (hover to see current wind gust speed)